createdAt,value
2023-01-04T00:01:36.937Z,8.09
2023-01-04T00:04:09.371Z,8.12
2023-01-04T00:06:56.908Z,8.16
2023-01-04T00:09:31.029Z,8.21
2023-01-04T00:12:04.452Z,8.15
2023-01-04T00:14:50.609Z,8.18
2023-01-04T00:17:30.170Z,8.15
2023-01-04T00:20:06.736Z,8.21
2023-01-04T00:22:36.815Z,8.21
2023-01-04T00:25:10.172Z,8.31
2023-01-04T00:27:40.437Z,8.21
2023-01-04T00:30:21.537Z,8.12
2023-01-04T00:32:59.729Z,8.08
2023-01-04T00:35:45.408Z,8.09
2023-01-04T00:38:13.266Z,8.05
2023-01-04T00:41:00.507Z,7.94
2023-01-04T00:43:28.142Z,7.95
2023-01-04T00:46:06.321Z,7.97
2023-01-04T00:48:40.466Z,7.98
2023-01-04T00:53:53.965Z,8.07
2023-01-04T00:56:38.320Z,7.97
2023-01-04T00:59:10.473Z,7.93
2023-01-04T01:01:47.651Z,7.87
2023-01-04T01:04:19.967Z,7.90
2023-01-04T01:06:50.803Z,7.88
2023-01-04T01:09:28.230Z,7.84
2023-01-04T01:12:00.399Z,7.84
2023-01-04T01:14:35.928Z,7.86
2023-01-04T01:17:10.953Z,7.90
2023-01-04T01:19:48.134Z,7.83
2023-01-04T01:22:27.050Z,7.81
2023-01-04T01:24:58.974Z,7.78
2023-01-04T01:27:31.855Z,7.69
2023-01-04T01:30:03.795Z,7.73
2023-01-04T01:32:41.340Z,7.74
2023-01-04T01:35:18.934Z,7.69
2023-01-04T01:37:52.645Z,7.78
2023-01-04T01:40:26.017Z,7.74
2023-01-04T01:43:02.138Z,7.78
2023-01-04T01:45:43.190Z,7.74
2023-01-04T01:48:28.322Z,7.69
2023-01-04T01:50:59.771Z,7.63
2023-01-04T01:53:38.533Z,7.66
2023-01-04T01:56:19.222Z,7.59
2023-01-04T01:59:01.643Z,7.62
2023-01-04T02:01:36.347Z,7.66
2023-01-04T02:04:16.199Z,7.78
2023-01-04T02:06:51.536Z,7.94
2023-01-04T02:09:26.049Z,7.84
2023-01-04T02:12:04.042Z,7.80
2023-01-04T02:14:39.826Z,7.87
2023-01-04T02:17:29.121Z,7.90
2023-01-04T02:20:22.842Z,7.87
2023-01-04T02:23:09.966Z,7.84
2023-01-04T02:26:06.064Z,7.88
2023-01-04T02:29:04.930Z,8.04
2023-01-04T02:31:45.139Z,7.99
2023-01-04T02:34:18.465Z,7.99
2023-01-04T02:36:55.799Z,8.05
2023-01-04T02:39:48.169Z,8.15
2023-01-04T02:43:09.630Z,7.93
2023-01-04T02:46:17.863Z,7.87
2023-01-04T02:49:06.262Z,7.77
2023-01-04T02:51:41.626Z,7.69
2023-01-04T02:54:35.697Z,7.71
2023-01-04T02:57:11.829Z,7.74
2023-01-04T03:00:00.616Z,7.65
2023-01-04T03:03:09.621Z,7.74
2023-01-04T03:06:02.837Z,7.74
2023-01-04T03:09:05.494Z,7.65
2023-01-04T03:12:12.979Z,7.57
2023-01-04T03:14:56.472Z,7.62
2023-01-04T03:17:50.435Z,7.59
2023-01-04T03:20:23.842Z,7.57
2023-01-04T03:23:17.712Z,7.53
2023-01-04T03:26:11.299Z,7.50
2023-01-04T03:29:21.063Z,7.43
2023-01-04T03:32:25.078Z,7.52
2023-01-04T03:35:27.128Z,7.62
2023-01-04T03:39:24.519Z,7.50
2023-01-04T03:42:39.500Z,7.55
2023-01-04T03:45:52.034Z,7.52
2023-01-04T03:48:34.676Z,7.50
2023-01-04T03:51:19.475Z,7.50
2023-01-04T03:54:11.254Z,7.49
2023-01-04T03:56:48.501Z,7.46
2023-01-04T03:59:29.146Z,7.39
2023-01-04T04:02:02.671Z,7.39
2023-01-04T04:04:50.883Z,7.33
2023-01-04T04:07:49.360Z,7.28
2023-01-04T04:10:22.742Z,7.32
2023-01-04T04:12:55.778Z,7.18
2023-01-04T04:15:30.008Z,7.12
2023-01-04T04:18:02.326Z,6.95
2023-01-04T04:20:38.433Z,6.95
2023-01-04T04:23:15.482Z,6.77
2023-01-04T04:25:47.705Z,6.83
2023-01-04T04:28:18.232Z,6.81
2023-01-04T04:30:56.688Z,6.70
2023-01-04T04:33:33.866Z,6.60
2023-01-04T04:36:06.183Z,6.54
2023-01-04T04:38:38.776Z,6.49
2023-01-04T04:41:43.165Z,6.44
2023-01-04T04:44:15.860Z,6.33
2023-01-04T04:46:54.203Z,6.40
2023-01-04T04:49:23.640Z,6.42
2023-01-04T04:51:59.978Z,6.25
2023-01-04T04:54:27.717Z,6.21
2023-01-04T04:57:01.523Z,6.09
2023-01-04T04:59:31.470Z,6.05
2023-01-04T05:02:00.712Z,5.99
2023-01-04T05:04:38.133Z,5.95
2023-01-04T05:07:12.404Z,5.91
2023-01-04T05:09:47.383Z,5.88
2023-01-04T05:12:39.284Z,5.85
2023-01-04T05:15:11.562Z,5.87
2023-01-04T05:17:41.433Z,5.85
2023-01-04T05:20:17.404Z,5.84
2023-01-04T05:22:45.726Z,5.73
2023-01-04T05:25:35.432Z,5.61
2023-01-04T05:28:05.892Z,5.54
2023-01-04T05:30:55.088Z,5.58
2023-01-04T05:33:41.018Z,5.57
2023-01-04T05:36:11.318Z,5.48
2023-01-04T05:38:44.073Z,5.50
2023-01-04T05:41:32.052Z,5.39
2023-01-04T05:44:00.370Z,5.40
2023-01-04T05:46:43.108Z,5.37
2023-01-04T05:49:23.860Z,5.33
2023-01-04T05:51:51.040Z,5.35
2023-01-04T05:54:24.919Z,5.39
2023-01-04T05:57:03.676Z,5.39
2023-01-04T05:59:34.431Z,5.47
2023-01-04T06:02:20.897Z,5.36
2023-01-04T06:04:58.865Z,5.27
2023-01-04T06:07:38.138Z,5.23
2023-01-04T06:10:16.631Z,5.29
2023-01-04T06:12:44.842Z,5.20
2023-01-04T06:15:17.607Z,5.23
2023-01-04T06:17:47.736Z,5.27
2023-01-04T06:20:20.042Z,5.22
2023-01-04T06:22:55.931Z,5.16
2023-01-04T06:25:33.412Z,5.18
2023-01-04T06:28:15.954Z,5.19
2023-01-04T06:30:45.959Z,5.16
2023-01-04T06:33:23.217Z,5.15
2023-01-04T06:35:58.267Z,5.18
2023-01-04T06:38:36.011Z,5.16
2023-01-04T06:41:03.209Z,5.26
2023-01-04T06:43:32.697Z,5.18
2023-01-04T06:46:11.317Z,5.23
2023-01-04T06:48:38.568Z,5.20
2023-01-04T06:51:12.255Z,5.26
2023-01-04T06:53:44.577Z,5.13
2023-01-04T06:56:15.034Z,5.19
2023-01-04T06:58:47.957Z,4.88
2023-01-04T07:01:17.947Z,4.74
2023-01-04T07:03:50.222Z,4.79
2023-01-04T07:09:13.253Z,4.88
2023-01-04T07:11:47.610Z,4.99
2023-01-04T07:14:20.409Z,5.05
2023-01-04T07:16:56.227Z,5.09
2023-01-04T07:19:32.137Z,5.09
2023-01-04T07:22:07.764Z,5.15
2023-01-04T07:24:41.565Z,5.20
2023-01-04T07:27:19.441Z,5.27
2023-01-04T07:29:54.336Z,5.30
2023-01-04T07:32:31.030Z,5.37
2023-01-04T07:35:10.602Z,5.46
2023-01-04T07:37:40.110Z,5.46
2023-01-04T07:40:13.118Z,5.63
2023-01-04T07:42:45.588Z,5.71
2023-01-04T07:45:19.536Z,5.75
2023-01-04T07:47:51.447Z,5.85
2023-01-04T07:50:26.799Z,5.87
2023-01-04T07:53:07.474Z,5.91
2023-01-04T07:55:39.570Z,5.98
2023-01-04T07:58:09.267Z,5.99
2023-01-04T08:00:48.705Z,6.02
2023-01-04T08:03:23.824Z,6.11
2023-01-04T08:05:58.615Z,6.15
2023-01-04T08:08:33.890Z,6.21
2023-01-04T08:11:20.851Z,6.28
2023-01-04T08:13:59.345Z,6.34
2023-01-04T08:16:31.602Z,6.40
2023-01-04T08:19:14.127Z,6.39
2023-01-04T08:21:50.271Z,6.47
2023-01-04T08:24:39.016Z,6.50
2023-01-04T08:27:23.470Z,6.54
2023-01-04T08:29:50.699Z,6.61
2023-01-04T08:32:42.416Z,6.63
2023-01-04T08:35:13.262Z,6.71
2023-01-04T08:37:47.347Z,6.83
2023-01-04T08:40:14.609Z,6.84
2023-01-04T08:42:45.786Z,6.91
2023-01-04T08:45:17.144Z,6.95
2023-01-04T08:47:56.008Z,6.97
2023-01-04T08:50:27.663Z,7.12
2023-01-04T08:52:57.126Z,7.22
2023-01-04T08:55:40.752Z,7.32
2023-01-04T08:58:14.994Z,7.33
2023-01-04T09:00:42.209Z,7.39
2023-01-04T09:03:14.712Z,7.45
2023-01-04T09:05:50.321Z,7.49
2023-01-04T09:08:19.722Z,7.67
2023-01-04T09:10:58.755Z,7.84
2023-01-04T09:13:28.295Z,7.94
2023-01-04T09:15:55.537Z,7.94
2023-01-04T09:18:32.804Z,8.12
2023-01-04T09:21:08.474Z,8.11
2023-01-04T09:23:40.971Z,8.14
2023-01-04T09:26:33.006Z,8.21
2023-01-04T09:29:07.570Z,8.32
2023-01-04T09:31:40.598Z,8.39
2023-01-04T09:34:17.001Z,8.45
2023-01-04T09:36:46.848Z,8.48
2023-01-04T09:39:22.859Z,8.48
2023-01-04T09:41:59.791Z,8.52
2023-01-04T09:45:23.652Z,8.59
2023-01-04T09:48:20.159Z,8.56
2023-01-04T09:51:03.493Z,8.55
2023-01-04T09:53:37.486Z,8.60
2023-01-04T09:56:28.844Z,8.67
2023-01-04T09:59:05.387Z,8.77
2023-01-04T10:01:53.863Z,8.81
2023-01-04T10:04:30.240Z,8.83
2023-01-04T10:07:05.226Z,8.88
2023-01-04T10:10:15.678Z,8.94
2023-01-04T10:13:28.574Z,8.93
2023-01-04T10:16:11.517Z,8.96
2023-01-04T10:21:10.325Z,9.25
2023-01-04T10:22:38.546Z,9.31
2023-01-04T10:25:36.770Z,9.31
2023-01-04T10:28:23.658Z,9.46
2023-01-04T10:31:39.780Z,9.48
2023-01-04T10:34:18.775Z,9.50
2023-01-04T10:37:14.101Z,9.48
2023-01-04T10:39:51.079Z,9.55
2023-01-04T10:42:25.315Z,9.58
2023-01-04T10:45:12.226Z,9.56
2023-01-04T10:48:14.658Z,9.56
2023-01-04T10:51:02.116Z,9.63
2023-01-04T10:54:20.873Z,9.69
2023-01-04T10:57:11.383Z,9.66
2023-01-04T11:00:06.571Z,9.69
2023-01-04T11:02:37.603Z,9.85
2023-01-04T11:05:09.638Z,10.00
2023-01-04T11:07:58.813Z,9.93
2023-01-04T11:10:44.751Z,9.85
2023-01-04T11:13:15.849Z,9.79
2023-01-04T11:15:48.982Z,9.87
2023-01-04T11:18:29.468Z,10.00
2023-01-04T11:21:00.697Z,10.04
2023-01-04T11:23:35.651Z,10.08
2023-01-04T11:26:29.343Z,10.14
2023-01-04T11:29:26.558Z,10.20
2023-01-04T11:32:29.778Z,10.14
2023-01-04T11:35:04.536Z,10.08
2023-01-04T11:37:46.318Z,10.22
2023-01-04T11:40:21.485Z,10.28
2023-01-04T11:42:57.663Z,10.20
2023-01-04T11:45:27.515Z,10.18
2023-01-04T11:47:58.469Z,10.24
2023-01-04T11:50:47.496Z,10.24
2023-01-04T11:53:33.885Z,10.21
2023-01-04T11:56:17.905Z,10.20
2023-01-04T11:59:35.650Z,10.17
2023-01-04T12:03:01.148Z,10.28
2023-01-04T12:05:34.862Z,10.28
2023-01-04T12:08:02.160Z,10.27
2023-01-04T12:10:29.318Z,10.25
2023-01-04T12:13:01.206Z,10.24
2023-01-04T12:15:39.972Z,10.22
2023-01-04T12:18:28.818Z,10.27
2023-01-04T12:20:58.738Z,10.41
2023-01-04T12:23:41.117Z,10.37
2023-01-04T12:26:23.543Z,10.41
2023-01-04T12:29:23.112Z,10.37
2023-01-04T12:31:56.150Z,10.41
2023-01-04T12:34:28.843Z,10.46
2023-01-04T12:37:09.868Z,10.51
2023-01-04T12:39:50.475Z,10.59
2023-01-04T12:42:27.391Z,10.56
2023-01-04T12:45:00.822Z,10.58
2023-01-04T12:47:52.238Z,10.56
2023-01-04T12:51:13.250Z,10.49
2023-01-04T12:53:54.023Z,10.55
2023-01-04T12:57:14.473Z,10.51
2023-01-04T13:00:04.825Z,10.55
2023-01-04T13:02:37.514Z,10.54
2023-01-04T13:08:15.667Z,10.41
2023-01-04T13:11:38.157Z,10.30
2023-01-04T13:14:49.607Z,10.27
2023-01-04T13:17:31.945Z,10.25
2023-01-04T13:20:10.297Z,10.21
2023-01-04T13:22:45.272Z,10.16
2023-01-04T13:25:21.671Z,10.14
2023-01-04T13:28:02.356Z,10.04
2023-01-04T13:30:38.960Z,10.04
2023-01-04T13:33:28.593Z,9.94
2023-01-04T13:36:09.494Z,9.85
2023-01-04T13:38:41.679Z,9.77
2023-01-04T13:41:32.265Z,9.76
2023-01-04T13:44:29.209Z,9.65
2023-01-04T13:47:14.885Z,9.53
2023-01-04T13:49:44.584Z,9.45
2023-01-04T13:52:55.165Z,9.56
2023-01-04T13:55:47.769Z,9.63
2023-01-04T13:58:26.324Z,9.58
2023-01-04T14:01:05.740Z,9.55
2023-01-04T14:04:00.525Z,9.46
2023-01-04T14:06:53.573Z,9.45
2023-01-04T14:09:57.888Z,9.55
2023-01-04T14:12:36.606Z,9.90
2023-01-04T14:15:27.325Z,9.79
2023-01-04T14:18:09.849Z,9.72
2023-01-04T14:20:41.027Z,9.79
2023-01-04T14:23:30.067Z,9.73
2023-01-04T14:26:10.524Z,9.69
2023-01-04T14:28:46.885Z,9.62
2023-01-04T14:31:25.237Z,9.63
2023-01-04T14:33:58.481Z,9.59
2023-01-04T14:36:32.124Z,9.65
2023-01-04T14:39:19.018Z,9.63
2023-01-04T14:41:53.229Z,9.58
2023-01-04T14:44:30.966Z,9.55
2023-01-04T14:47:06.431Z,9.49
2023-01-04T14:49:34.460Z,9.50
2023-01-04T14:52:12.164Z,9.65
2023-01-04T14:54:55.027Z,9.60
2023-01-04T14:57:44.536Z,9.59
2023-01-04T15:00:19.770Z,9.53
2023-01-04T15:02:52.494Z,9.42
2023-01-04T15:05:24.344Z,9.32
2023-01-04T15:08:00.650Z,9.27
2023-01-04T15:10:36.030Z,9.25
2023-01-04T15:13:16.165Z,9.20
2023-01-04T15:15:46.051Z,9.11
2023-01-04T15:18:17.800Z,9.04
2023-01-04T15:20:53.786Z,8.99
2023-01-04T15:23:26.420Z,8.90
2023-01-04T15:25:56.666Z,8.83
2023-01-04T15:28:30.806Z,8.87
2023-01-04T15:31:01.362Z,8.79
2023-01-04T15:33:34.324Z,8.72
2023-01-04T15:36:23.272Z,8.69
2023-01-04T15:38:58.825Z,8.57
2023-01-04T15:41:49.813Z,8.46
2023-01-04T15:44:25.989Z,8.45
2023-01-04T15:46:58.149Z,8.41
2023-01-04T15:49:36.789Z,8.32
2023-01-04T15:52:10.993Z,8.24
2023-01-04T15:54:52.030Z,8.21
2023-01-04T15:57:44.239Z,8.20
2023-01-04T16:00:23.451Z,8.12
2023-01-04T16:03:11.129Z,8.11
2023-01-04T16:05:52.354Z,8.05
2023-01-04T16:08:19.539Z,8.08
2023-01-04T16:10:48.561Z,8.05
2023-01-04T16:13:20.866Z,7.98
2023-01-04T16:15:53.613Z,8.01
2023-01-04T16:18:32.134Z,7.91
2023-01-04T16:21:17.262Z,7.88
2023-01-04T16:24:03.963Z,7.91
2023-01-04T16:26:34.377Z,7.90
2023-01-04T16:29:06.598Z,7.84
2023-01-04T16:31:37.804Z,7.88
2023-01-04T16:34:12.197Z,7.80
2023-01-04T16:36:39.614Z,7.78
2023-01-04T16:39:17.552Z,7.71
2023-01-04T16:42:18.324Z,7.66
2023-01-04T16:45:00.200Z,7.60
2023-01-04T16:47:59.038Z,7.52
2023-01-04T16:50:31.700Z,7.45
2023-01-04T16:53:01.482Z,7.40
2023-01-04T16:55:45.479Z,7.38
2023-01-04T16:58:17.919Z,7.36
2023-01-04T17:00:55.055Z,7.30
2023-01-04T17:03:29.824Z,7.32
2023-01-04T17:06:11.548Z,7.28
2023-01-04T17:08:42.275Z,7.26
2023-01-04T17:12:04.984Z,7.22
2023-01-04T17:14:18.155Z,7.23
2023-01-04T17:16:50.683Z,7.26
2023-01-04T17:19:27.588Z,7.29
2023-01-04T17:24:44.114Z,7.32
2023-01-04T17:27:16.160Z,7.30
2023-01-04T17:29:50.267Z,7.30
2023-01-04T17:32:20.278Z,7.33
2023-01-04T17:34:52.013Z,7.28
2023-01-04T17:37:30.143Z,7.28
2023-01-04T17:40:03.989Z,7.28
2023-01-04T17:51:22.776Z,7.19
2023-01-04T17:54:10.801Z,7.18
2023-01-04T17:56:42.896Z,7.12
2023-01-04T17:59:23.447Z,7.08
2023-01-04T18:01:58.952Z,7.07
2023-01-04T18:04:27.113Z,6.98
2023-01-04T18:06:56.772Z,6.90
2023-01-04T18:09:31.776Z,6.87
2023-01-04T18:12:01.971Z,6.83
2023-01-04T18:14:31.498Z,6.81
2023-01-04T18:17:06.041Z,6.77
2023-01-04T18:19:37.424Z,6.74
2023-01-04T18:22:13.124Z,6.69
2023-01-04T18:24:44.944Z,6.67
2023-01-04T18:27:21.898Z,6.67
2023-01-04T18:29:50.355Z,6.66
2023-01-04T18:32:21.149Z,6.69
2023-01-04T18:34:57.437Z,6.58
2023-01-04T18:37:27.605Z,6.64
2023-01-04T18:40:18.367Z,6.69
2023-01-04T18:42:59.074Z,6.63
2023-01-04T18:45:30.468Z,6.63
2023-01-04T18:48:02.173Z,6.66
2023-01-04T18:50:29.335Z,6.63
2023-01-04T18:52:59.709Z,6.71
2023-01-04T18:55:26.920Z,6.70
2023-01-04T18:58:00.501Z,6.69
2023-01-04T19:00:37.541Z,6.71
2023-01-04T19:03:16.400Z,6.73
2023-01-04T19:05:50.398Z,6.76
2023-01-04T19:08:30.018Z,6.77
2023-01-04T19:10:59.139Z,6.71
2023-01-04T19:13:41.431Z,6.76
2023-01-04T19:17:03.916Z,6.73
2023-01-04T19:19:37.555Z,6.63
2023-01-04T19:22:04.805Z,6.63
2023-01-04T19:24:35.575Z,6.57
2023-01-04T19:27:15.685Z,6.52
2023-01-04T19:29:55.110Z,6.42
2023-01-04T19:32:33.236Z,6.37
2023-01-04T19:37:50.774Z,6.18
2023-01-04T19:40:20.729Z,6.18
2023-01-04T19:42:51.985Z,6.16
2023-01-04T19:45:31.165Z,6.11
2023-01-04T19:48:05.976Z,6.09
2023-01-04T19:50:42.455Z,6.05
2023-01-04T19:53:22.554Z,5.95
2023-01-04T19:56:03.317Z,5.97
2023-01-04T19:58:34.364Z,5.93
2023-01-04T20:01:04.827Z,5.94
2023-01-04T20:03:42.291Z,5.94
2023-01-04T20:06:29.884Z,5.98
2023-01-04T20:09:02.646Z,5.98
2023-01-04T20:11:37.787Z,5.95
2023-01-04T20:14:11.745Z,5.94
2023-01-04T20:16:49.808Z,5.85
2023-01-04T20:19:26.952Z,5.75
2023-01-04T20:21:57.905Z,5.79
2023-01-04T20:24:25.223Z,5.81
2023-01-04T20:26:59.691Z,5.75
2023-01-04T20:29:26.896Z,5.84
2023-01-04T20:32:02.807Z,5.85
2023-01-04T20:34:39.059Z,5.84
2023-01-04T20:37:16.653Z,5.83
2023-01-04T20:39:49.125Z,5.90
2023-01-04T20:42:38.974Z,5.91
2023-01-04T20:45:07.177Z,5.91
2023-01-04T20:47:44.667Z,5.97
2023-01-04T20:50:20.363Z,5.95
2023-01-04T20:52:47.619Z,5.90
2023-01-04T20:55:17.565Z,5.85
2023-01-04T20:57:47.390Z,5.90
2023-01-04T21:00:17.332Z,5.93
2023-01-04T21:02:56.059Z,5.90
2023-01-04T21:05:47.646Z,5.93
2023-01-04T21:08:23.864Z,5.95
2023-01-04T21:28:08.248Z,5.73
2023-01-04T21:30:44.891Z,5.71
2023-01-04T21:33:23.610Z,5.70
2023-01-04T21:35:57.685Z,5.74
2023-01-04T21:38:29.949Z,5.74
2023-01-04T21:40:59.982Z,5.81
2023-01-04T21:43:27.568Z,5.85
2023-01-04T21:45:56.375Z,5.83
2023-01-04T21:48:26.486Z,5.83
2023-01-04T21:51:12.773Z,5.75
2023-01-04T21:53:57.805Z,5.73
2023-01-04T21:56:28.294Z,5.74
2023-01-04T21:59:04.701Z,5.73
2023-01-04T22:01:44.996Z,5.74
2023-01-04T22:04:28.414Z,5.78
2023-01-04T22:06:57.903Z,5.85
2023-01-04T22:09:27.445Z,5.84
2023-01-04T22:12:03.271Z,5.83
2023-01-04T22:14:40.783Z,5.83
2023-01-04T22:17:13.539Z,5.87
2023-01-04T22:19:52.413Z,5.83
2023-01-04T22:22:31.337Z,5.78
2023-01-04T22:25:08.143Z,5.83
2023-01-04T22:27:40.499Z,5.78
2023-01-04T22:30:26.296Z,5.74
2023-01-04T22:32:57.124Z,5.79
2023-01-04T22:35:33.304Z,5.77
2023-01-04T22:38:03.342Z,5.81
2023-01-04T22:40:37.448Z,5.79
2023-01-04T22:43:19.942Z,5.79
2023-01-04T22:46:01.346Z,5.77
2023-01-04T22:48:33.487Z,5.71
2023-01-04T22:51:09.456Z,5.75
2023-01-04T22:53:40.602Z,5.74
2023-01-04T22:56:41.436Z,5.77
2023-01-04T22:59:11.369Z,5.68
2023-01-04T23:01:41.792Z,5.66
2023-01-04T23:04:25.471Z,5.67
2023-01-04T23:07:07.993Z,5.61
2023-01-04T23:09:43.927Z,5.64
2023-01-04T23:12:15.166Z,5.71
2023-01-04T23:14:47.829Z,5.70
2023-01-04T23:17:20.425Z,5.71
2023-01-04T23:19:52.544Z,5.75
2023-01-04T23:22:28.151Z,5.85
2023-01-04T23:25:03.548Z,5.88
2023-01-04T23:27:31.841Z,5.97
2023-01-04T23:30:06.556Z,6.01
2023-01-04T23:32:47.830Z,6.12
2023-01-04T23:35:28.891Z,6.19
2023-01-04T23:38:04.550Z,6.23
2023-01-04T23:40:33.143Z,6.32
2023-01-04T23:43:09.573Z,6.33
2023-01-04T23:45:45.084Z,6.36
2023-01-04T23:48:21.634Z,6.42
2023-01-04T23:51:04.312Z,6.39
2023-01-04T23:53:35.650Z,6.39
2023-01-04T23:56:06.595Z,6.37
2023-01-04T23:58:46.989Z,6.33
